Time,TemperatureF,DewpointF,PressureIn,WindDirection,WindDirectionDegrees,WindSpeedMPH,WindSpeedGustMPH,Humidity,HourlyPrecipIn,Conditions,Clouds,dailyrainin,SolarRadiationWatts/m^2,SoftwareType,DateUTC
2013-01-16 00:02:00,20.5,9.0,30.07,North,5,2.0,-999.0,62,-99.99,,,0.00,0,weatherlink.com 1.10,2013-01-16 06:02:00,
2013-01-16 00:18:00,20.8,9.0,30.07,NE,36,2.0,-999.0,61,-99.99,,,0.00,0,weatherlink.com 1.10,2013-01-16 06:18:00,
2013-01-16 00:32:00,20.8,9.0,30.07,NNE,21,3.0,-999.0,60,-99.99,,,0.00,0,weatherlink.com 1.10,2013-01-16 06:32:00,
2013-01-16 00:47:00,20.6,9.0,30.06,NNE,26,1.0,-999.0,61,-99.99,,,0.00,0,weatherlink.com 1.10,2013-01-16 06:47:00,
2013-01-16 01:02:00,20.8,9.0,30.05,NNE,17,4.0,-999.0,61,-99.99,,,0.00,0,weatherlink.com 1.10,2013-01-16 07:02:00,
2013-01-16 01:17:00,20.5,9.0,30.05,NNE,27,2.0,-999.0,61,-99.99,,,0.00,0,weatherlink.com 1.10,2013-01-16 07:17:00,
2013-01-16 01:32:00,20.6,9.0,30.04,NNE,32,3.0,-999.0,62,-99.99,,,0.00,0,weatherlink.com 1.10,2013-01-16 07:32:00,
2013-01-16 01:47:00,20.8,9.0,30.04,North,11,5.0,-999.0,61,-99.99,,,0.00,0,weatherlink.com 1.10,2013-01-16 07:47:00,
2013-01-16 02:02:00,21.0,9.0,30.04,NE,40,4.0,-999.0,61,-99.99,,,0.00,0,weatherlink.com 1.10,2013-01-16 08:02:00,
2013-01-16 02:17:00,21.1,9.0,30.04,NE,55,4.0,-999.0,61,-99.99,,,0.00,0,weatherlink.com 1.10,2013-01-16 08:17:00,
2013-01-16 02:32:00,21.0,10.0,30.03,NNE,22,4.0,-999.0,62,-99.99,,,0.00,0,weatherlink.com 1.10,2013-01-16 08:32:00,
2013-01-16 02:47:00,21.0,10.0,30.02,NE,47,5.0,-999.0,62,-99.99,,,0.00,0,weatherlink.com 1.10,2013-01-16 08:47:00,
2013-01-16 03:02:00,21.0,10.0,30.01,NE,37,3.0,-999.0,62,-99.99,,,0.00,0,weatherlink.com 1.10,2013-01-16 09:02:00,
2013-01-16 03:17:00,21.1,10.0,30.00,NE,43,5.0,-999.0,62,-99.99,,,0.00,0,weatherlink.com 1.10,2013-01-16 09:17:00,
2013-01-16 03:32:00,21.1,10.0,29.99,NNE,31,6.0,-999.0,63,-99.99,,,0.00,0,weatherlink.com 1.10,2013-01-16 09:32:00,
2013-01-16 03:47:00,21.1,11.0,29.99,NE,36,3.0,-999.0,64,-99.99,,,0.00,0,weatherlink.com 1.10,2013-01-16 09:47:00,
2013-01-16 04:02:00,21.0,11.0,29.98,NNE,18,3.0,-999.0,65,-99.99,,,0.00,0,weatherlink.com 1.10,2013-01-16 10:02:00,
2013-01-16 04:17:00,21.3,11.0,29.97,North,9,5.0,-999.0,65,-99.99,,,0.00,0,weatherlink.com 1.10,2013-01-16 10:17:00,
2013-01-16 04:32:00,21.8,12.0,29.96,NE,46,4.0,-999.0,65,-99.99,,,0.00,0,weatherlink.com 1.10,2013-01-16 10:32:00,
2013-01-16 04:47:00,22.1,12.0,29.96,NE,43,5.0,-999.0,65,-99.99,,,0.00,0,weatherlink.com 1.10,2013-01-16 10:47:00,
2013-01-16 05:02:00,22.4,12.0,29.96,NE,49,6.0,-999.0,65,-99.99,,,0.00,0,weatherlink.com 1.10,2013-01-16 11:02:00,
2013-01-16 05:17:00,22.9,13.0,29.94,NNE,24,6.0,-999.0,65,-99.99,,,0.00,0,weatherlink.com 1.10,2013-01-16 11:17:00,
2013-01-16 05:32:00,23.2,13.0,29.93,ENE,59,6.0,-999.0,65,-99.99,,,0.00,0,weatherlink.com 1.10,2013-01-16 11:32:00,
2013-01-16 06:02:00,23.8,14.0,29.91,NE,37,5.0,-999.0,65,-99.99,,,0.00,0,weatherlink.com 1.10,2013-01-16 12:02:00,
2013-01-16 06:17:00,24.4,14.0,29.92,NE,36,5.0,-999.0,65,-99.99,,,0.00,0,weatherlink.com 1.10,2013-01-16 12:17:00,
2013-01-16 06:32:00,24.5,14.0,29.93,NE,44,5.0,-999.0,65,-99.99,,,0.00,0,weatherlink.com 1.10,2013-01-16 12:32:00,
2013-01-16 06:47:00,24.8,15.0,29.93,NNE,28,3.0,-999.0,65,-99.99,,,0.00,0,weatherlink.com 1.10,2013-01-16 12:47:00,
2013-01-16 07:02:00,25.1,15.0,29.93,NE,46,6.0,-999.0,65,-99.99,,,0.00,0,weatherlink.com 1.10,2013-01-16 13:02:00,
2013-01-16 07:17:00,25.4,15.0,29.93,NE,34,10.0,-999.0,64,-99.99,,,0.00,0,weatherlink.com 1.10,2013-01-16 13:17:00,
2013-01-16 07:32:00,25.7,15.0,29.92,NE,40,5.0,-999.0,63,-99.99,,,0.00,0,weatherlink.com 1.10,2013-01-16 13:32:00,
2013-01-16 07:47:00,26.0,15.0,29.91,NNE,29,11.0,-999.0,63,-99.99,,,0.00,5,weatherlink.com 1.10,2013-01-16 13:47:00,
2013-01-16 08:02:00,26.1,15.0,29.92,NE,51,10.0,-999.0,63,-99.99,,,0.00,12,weatherlink.com 1.10,2013-01-16 14:02:00,
2013-01-16 08:17:00,26.4,15.0,29.93,NE,36,9.0,-999.0,63,-99.99,,,0.00,23,weatherlink.com 1.10,2013-01-16 14:17:00,
2013-01-16 08:32:00,26.9,15.0,29.94,NE,43,8.0,-999.0,62,-99.99,,,0.00,23,weatherlink.com 1.10,2013-01-16 14:32:00,
2013-01-16 08:47:00,27.5,16.0,29.94,NE,46,2.0,-999.0,63,-99.99,,,0.00,33,weatherlink.com 1.10,2013-01-16 14:47:00,
2013-01-16 09:03:00,28.1,16.0,29.93,East,83,2.0,-999.0,62,-99.99,,,0.00,76,weatherlink.com 1.10,2013-01-16 15:03:00,
2013-01-16 09:18:00,29.0,17.0,29.93,NNE,23,7.0,-999.0,62,-99.99,,,0.00,72,weatherlink.com 1.10,2013-01-16 15:18:00,
2013-01-16 09:33:00,29.5,18.0,29.93,ENE,68,6.0,-999.0,62,-99.99,,,0.00,86,weatherlink.com 1.10,2013-01-16 15:33:00,
2013-01-16 09:48:00,30.0,19.0,29.93,ENE,63,6.0,-999.0,63,-99.99,,,0.00,185,weatherlink.com 1.10,2013-01-16 15:48:00,
2013-01-16 10:03:00,31.2,20.0,29.93,NNE,28,4.0,-999.0,63,-99.99,,,0.00,320,weatherlink.com 1.10,2013-01-16 16:03:00,
2013-01-16 10:18:00,32.1,20.0,29.93,East,86,6.0,-999.0,62,-99.99,,,0.00,128,weatherlink.com 1.10,2013-01-16 16:18:00,
2013-01-16 10:33:00,34.1,22.0,29.92,East,88,3.0,-999.0,62,-99.99,,,0.00,362,weatherlink.com 1.10,2013-01-16 16:33:00,
2013-01-16 10:48:00,35.2,23.0,29.91,ENE,66,5.0,-999.0,61,-99.99,,,0.00,388,weatherlink.com 1.10,2013-01-16 16:48:00,
2013-01-16 11:03:00,36.3,23.0,29.91,NE,46,6.0,-999.0,60,-99.99,,,0.00,406,weatherlink.com 1.10,2013-01-16 17:03:00,
2013-01-16 11:33:00,38.6,26.0,29.91,ESE,109,3.0,-999.0,60,-99.99,,,0.00,234,weatherlink.com 1.10,2013-01-16 17:33:00,
2013-01-16 11:48:00,39.1,27.0,29.91,ESE,105,4.0,-999.0,61,-99.99,,,0.00,163,weatherlink.com 1.10,2013-01-16 17:48:00,
2013-01-16 12:03:00,38.8,27.0,29.90,ENE,77,1.0,-999.0,62,-99.99,,,0.00,141,weatherlink.com 1.10,2013-01-16 18:03:00,
2013-01-16 12:18:00,39.5,27.0,29.89,East,97,9.0,-999.0,61,-99.99,,,0.00,411,weatherlink.com 1.10,2013-01-16 18:18:00,
2013-01-16 12:33:00,41.2,28.0,29.88,NE,56,6.0,-999.0,60,-99.99,,,0.00,512,weatherlink.com 1.10,2013-01-16 18:33:00,
2013-01-16 12:48:00,42.9,29.0,29.88,East,80,4.0,-999.0,58,-99.99,,,0.00,251,weatherlink.com 1.10,2013-01-16 18:48:00,
2013-01-16 13:03:00,43.3,30.0,29.88,ENE,69,3.0,-999.0,59,-99.99,,,0.00,109,weatherlink.com 1.10,2013-01-16 19:03:00,
2013-01-16 13:18:00,43.9,30.0,29.88,SE,126,7.0,-999.0,59,-99.99,,,0.00,79,weatherlink.com 1.10,2013-01-16 19:18:00,
2013-01-16 13:33:00,44.9,31.0,29.88,ESE,109,4.0,-999.0,58,-99.99,,,0.00,223,weatherlink.com 1.10,2013-01-16 19:33:00,
2013-01-16 13:48:00,45.7,31.0,29.89,East,98,6.0,-999.0,57,-99.99,,,0.00,214,weatherlink.com 1.10,2013-01-16 19:48:00,
2013-01-16 14:03:00,46.1,31.0,29.88,ESE,111,2.0,-999.0,56,-99.99,,,0.00,227,weatherlink.com 1.10,2013-01-16 20:03:00,
2013-01-16 14:18:00,46.4,31.0,29.89,East,91,6.0,-999.0,56,-99.99,,,0.00,155,weatherlink.com 1.10,2013-01-16 20:18:00,
2013-01-16 14:33:00,46.8,31.0,29.89,ENE,70,5.0,-999.0,55,-99.99,,,0.00,290,weatherlink.com 1.10,2013-01-16 20:33:00,
2013-01-16 14:48:00,47.4,31.0,29.89,NE,48,9.0,-999.0,54,-99.99,,,0.00,297,weatherlink.com 1.10,2013-01-16 20:48:00,
2013-01-16 15:03:00,47.4,31.0,29.89,ESE,122,5.0,-999.0,54,-99.99,,,0.00,267,weatherlink.com 1.10,2013-01-16 21:03:00,
2013-01-16 15:18:00,48.0,31.0,29.89,East,86,9.0,-999.0,53,-99.99,,,0.00,232,weatherlink.com 1.10,2013-01-16 21:18:00,
2013-01-16 15:34:00,48.3,32.0,29.91,ENE,58,2.0,-999.0,53,-99.99,,,0.00,197,weatherlink.com 1.10,2013-01-16 21:34:00,
2013-01-16 15:49:00,48.2,32.0,29.91,ENE,67,3.0,-999.0,53,-99.99,,,0.00,156,weatherlink.com 1.10,2013-01-16 21:49:00,
2013-01-16 16:04:00,48.0,31.0,29.91,East,90,6.0,-999.0,53,-99.99,,,0.00,105,weatherlink.com 1.10,2013-01-16 22:04:00,
2013-01-16 16:19:00,48.0,32.0,29.91,ENE,65,3.0,-999.0,54,-99.99,,,0.00,65,weatherlink.com 1.10,2013-01-16 22:19:00,
2013-01-16 16:34:00,47.6,32.0,29.92,ENE,67,2.0,-999.0,55,-99.99,,,0.00,35,weatherlink.com 1.10,2013-01-16 22:34:00,
2013-01-16 16:49:00,46.8,32.0,29.93,NE,53,2.0,-999.0,57,-99.99,,,0.00,16,weatherlink.com 1.10,2013-01-16 22:49:00,
2013-01-16 17:04:00,45.8,32.0,29.94,NE,53,0.0,-999.0,59,-99.99,,,0.00,9,weatherlink.com 1.10,2013-01-16 23:04:00,
2013-01-16 17:19:00,45.2,32.0,29.95,NE,53,0.0,-999.0,60,-99.99,,,0.00,0,weatherlink.com 1.10,2013-01-16 23:19:00,
2013-01-16 17:34:00,44.9,32.0,29.96,East,92,3.0,-999.0,61,-99.99,,,0.00,0,weatherlink.com 1.10,2013-01-16 23:34:00,
2013-01-16 17:49:00,44.3,32.0,29.97,SE,143,1.0,-999.0,62,-99.99,,,0.00,0,weatherlink.com 1.10,2013-01-16 23:49:00,
2013-01-16 18:04:00,43.6,32.0,29.97,SE,126,1.0,-999.0,64,-99.99,,,0.00,0,weatherlink.com 1.10,2013-01-17 00:04:00,
2013-01-16 18:19:00,43.2,32.0,29.97,ESE,119,0.0,-999.0,65,-99.99,,,0.00,0,weatherlink.com 1.10,2013-01-17 00:19:00,
2013-01-16 18:34:00,42.6,32.0,29.98,ESE,119,2.0,-999.0,67,-99.99,,,0.00,0,weatherlink.com 1.10,2013-01-17 00:34:00,
2013-01-16 18:49:00,41.9,32.0,29.99,ESE,119,1.0,-999.0,68,-99.99,,,0.00,0,weatherlink.com 1.10,2013-01-17 00:49:00,
2013-01-16 19:04:00,41.5,32.0,30.00,East,98,2.0,-999.0,69,-99.99,,,0.00,0,weatherlink.com 1.10,2013-01-17 01:04:00,
2013-01-16 19:19:00,41.1,32.0,30.02,East,98,2.0,-999.0,70,-99.99,,,0.00,0,weatherlink.com 1.10,2013-01-17 01:19:00,
2013-01-16 19:34:00,40.9,32.0,30.02,SSE,157,3.0,-999.0,71,-99.99,,,0.00,0,weatherlink.com 1.10,2013-01-17 01:34:00,
2013-01-16 19:49:00,41.3,32.0,30.03,SE,137,3.0,-999.0,70,-99.99,,,0.00,0,weatherlink.com 1.10,2013-01-17 01:49:00,
2013-01-16 20:04:00,41.2,32.0,30.04,ESE,123,3.0,-999.0,70,-99.99,,,0.00,0,weatherlink.com 1.10,2013-01-17 02:04:00,
2013-01-16 20:19:00,40.8,32.0,30.04,SSE,167,3.0,-999.0,71,-99.99,,,0.00,0,weatherlink.com 1.10,2013-01-17 02:19:00,
2013-01-16 20:34:00,40.2,31.0,30.05,SSE,156,2.0,-999.0,71,-99.99,,,0.00,0,weatherlink.com 1.10,2013-01-17 02:34:00,
2013-01-16 20:49:00,39.5,32.0,30.07,South,175,2.0,-999.0,73,-99.99,,,0.00,0,weatherlink.com 1.10,2013-01-17 02:49:00,
2013-01-16 21:19:00,38.5,32.0,30.08,SSE,163,9.0,-999.0,76,-99.99,,,0.00,0,weatherlink.com 1.10,2013-01-17 03:19:00,
2013-01-16 21:34:00,37.8,32.0,30.09,South,170,15.0,-999.0,78,-99.99,,,0.00,0,weatherlink.com 1.10,2013-01-17 03:34:00,
2013-01-16 21:49:00,37.3,32.0,30.10,SSE,156,6.0,-999.0,80,-99.99,,,0.00,0,weatherlink.com 1.10,2013-01-17 03:49:00,
2013-01-16 22:04:00,36.2,31.0,30.11,SSE,161,6.0,-999.0,80,-99.99,,,0.00,0,weatherlink.com 1.10,2013-01-17 04:04:00,
2013-01-16 22:19:00,35.0,30.0,30.11,SSE,163,3.0,-999.0,81,-99.99,,,0.00,0,weatherlink.com 1.10,2013-01-17 04:19:00,
2013-01-16 22:34:00,34.4,29.0,30.13,SSE,161,4.0,-999.0,82,-99.99,,,0.00,0,weatherlink.com 1.10,2013-01-17 04:34:00,
2013-01-16 22:49:00,34.3,30.0,30.13,South,173,4.0,-999.0,83,-99.99,,,0.00,0,weatherlink.com 1.10,2013-01-17 04:49:00,
2013-01-16 23:04:00,33.5,28.0,30.14,SSE,159,5.0,-999.0,81,-99.99,,,0.00,0,weatherlink.com 1.10,2013-01-17 05:04:00,
2013-01-16 23:19:00,32.8,28.0,30.15,SSE,157,5.0,-999.0,82,-99.99,,,0.00,0,weatherlink.com 1.10,2013-01-17 05:19:00,
2013-01-16 23:34:00,32.7,28.0,30.16,SE,134,3.0,-999.0,81,-99.99,,,0.00,0,weatherlink.com 1.10,2013-01-17 05:34:00,
2013-01-16 23:49:00,32.7,28.0,30.17,South,180,9.0,-999.0,81,-99.99,,,0.00,0,weatherlink.com 1.10,2013-01-17 05:49:00,